Terminal Aerodrome Forecast
Issued by NWS

Home | Current Version | Previous Version | Text Only | Print | Product List | Glossary On
Versions: 1 2 3 4 5 6 7 8 9 10 11 12 13 14 15
840
FTUS46 KEKA 241749
TAFUKI
TAF
KUKI 241749Z 2418/2518 00000KT 6SM BR SCT002 BKN150
      TEMPO 2418/2419 4SM BR BKN002
     FM242100 33003KT P6SM BKN150
     FM250200 00000KT P6SM BKN150
     FM251400 15003KT P6SM SCT150 BKN200=

USA.gov is the U.S. government's official web portal to all federal, state and local government web resources and services.